Time;durP1;ratioP1;P1;durP2;ratioP2;P2;SDS_P1;SDS_P2;PMS_P1;PMS_P2;Temp;Humidity;BMP_temperature;BMP_pressure;BME280_temperature;BME280_humidity;BME280_pressure;Samples;Min_cycle;Max_cycle;Signal;HPM_P1;HPM_P2
2022/03/21 00:01:13;;;;;;;18.23;8.45;;;;;;;3.37;41.96;102670.31;5093685;28;20050;-76
2022/03/21 00:03:38;;;;;;;21.45;7.60;;;;;;;3.35;42.00;102669.47;5093729;28;20074;-76
2022/03/21 00:06:05;;;;;;;13.15;7.82;;;;;;;3.33;42.26;102663.31;5111974;28;20122;-76
2022/03/21 00:08:30;;;;;;;18.40;8.30;;;;;;;3.26;42.23;102659.91;5112157;28;20035;-77
2022/03/21 00:10:57;;;;;;;20.05;9.00;;;;;;;3.22;42.19;102663.50;5112283;28;20023;-77
2022/03/21 00:13:24;;;;;;;19.20;9.05;;;;;;;2.97;42.96;102671.03;5112754;28;20027;-76
2022/03/21 00:15:52;;;;;;;18.13;8.45;;;;;;;3.14;42.67;102668.09;5111838;28;20020;-76
2022/03/21 00:18:18;;;;;;;19.98;9.02;;;;;;;3.22;42.25;102653.75;5111447;28;20577;-76
2022/03/21 00:20:45;;;;;;;18.27;8.88;;;;;;;3.20;42.24;102660.88;5093476;28;20016;-76
2022/03/21 00:23:12;;;;;;;23.05;9.15;;;;;;;3.12;42.40;102652.16;5093520;28;20389;-76
2022/03/21 00:25:37;;;;;;;19.52;9.57;;;;;;;3.15;42.30;102657.41;5111634;28;20039;-77
2022/03/21 00:28:04;;;;;;;21.65;8.13;;;;;;;3.21;41.97;102657.31;5111882;28;20019;-77
2022/03/21 00:30:30;;;;;;;16.85;7.68;;;;;;;3.25;41.98;102652.81;5093514;28;20034;-77
2022/03/21 00:32:56;;;;;;;20.55;8.55;;;;;;;3.23;41.91;102655.50;5111671;28;20035;-77
2022/03/21 00:35:22;;;;;;;14.18;8.35;;;;;;;3.24;41.76;102657.25;5094032;28;20028;-75
2022/03/21 00:37:49;;;;;;;14.52;7.55;;;;;;;3.16;41.65;102647.66;5111543;28;20459;-76
2022/03/21 00:40:16;;;;;;;15.57;8.32;;;;;;;3.23;41.49;102651.97;5093490;28;20240;-75
2022/03/21 00:42:44;;;;;;;17.40;7.25;;;;;;;3.22;41.62;102643.13;5111460;28;20055;-75
2022/03/21 00:45:21;;;;;;;17.27;8.85;;;;;;;3.31;40.92;102636.75;5093389;28;20503;-76
2022/03/21 00:47:49;;;;;;;19.42;7.57;;;;;;;3.16;41.24;102642.34;5111784;28;20096;-76
2022/03/21 00:50:16;;;;;;;15.95;7.80;;;;;;;3.06;41.30;102631.00;5093178;28;20560;-76
2022/03/21 00:52:53;;;;;;;11.98;7.65;;;;;;;3.11;41.16;102629.16;5093361;28;20051;-76
2022/03/21 00:55:21;;;;;;;18.95;7.88;;;;;;;3.17;40.89;102639.69;5093334;28;20032;-77
2022/03/21 00:57:47;;;;;;;11.43;8.13;;;;;;;3.27;40.55;102635.91;5093185;28;20026;-75
2022/03/21 01:00:14;;;;;;;14.55;7.82;;;;;;;3.29;40.22;102638.56;5093118;28;20204;-76
2022/03/21 01:02:41;;;;;;;14.50;7.82;;;;;;;3.17;40.56;102626.38;5093221;28;20023;-76
2022/03/21 01:05:07;;;;;;;14.35;7.00;;;;;;;3.18;40.24;102625.44;5093047;28;20470;-76
2022/03/21 01:07:34;;;;;;;16.88;8.75;;;;;;;3.19;40.07;102626.34;5111233;28;20051;-75
2022/03/21 01:10:00;;;;;;;16.17;7.75;;;;;;;3.18;40.02;102629.94;5093617;28;20023;-78
2022/03/21 01:12:26;;;;;;;15.45;8.10;;;;;;;3.05;40.26;102626.63;5111437;28;20423;-76
2022/03/21 01:14:52;;;;;;;15.55;8.77;;;;;;;3.15;40.21;102625.50;5092968;28;20035;-76
2022/03/21 01:17:17;;;;;;;12.23;7.75;;;;;;;3.17;40.07;102628.16;5111217;28;20032;-76
2022/03/21 01:19:43;;;;;;;20.63;8.65;;;;;;;3.10;40.04;102632.72;5092862;28;20025;-76
2022/03/21 01:22:09;;;;;;;16.23;8.95;;;;;;;3.07;40.22;102631.88;5111159;28;20095;-76
2022/03/21 01:24:38;;;;;;;15.80;9.27;;;;;;;2.98;40.28;102627.63;5111032;28;20035;-77
2022/03/21 01:27:04;;;;;;;17.65;8.70;;;;;;;2.92;40.01;102633.03;5111124;28;20031;-77
2022/03/21 01:29:30;;;;;;;17.38;8.27;;;;;;;2.99;40.21;102628.50;5111909;28;20031;-78
2022/03/21 01:31:56;;;;;;;15.40;9.15;;;;;;;3.00;40.07;102620.47;5114902;28;20027;-76
2022/03/21 01:34:21;;;;;;;13.50;7.72;;;;;;;2.94;39.93;102627.69;5096409;28;20050;-77
2022/03/21 01:36:47;;;;;;;17.83;8.05;;;;;;;2.86;40.38;102626.97;5114608;28;20023;-76
2022/03/21 01:39:12;;;;;;;13.80;8.35;;;;;;;2.94;40.32;102623.25;5096368;28;20039;-76
2022/03/21 01:41:38;;;;;;;15.00;8.52;;;;;;;2.87;40.19;102623.41;5096230;28;20024;-76
2022/03/21 01:44:09;;;;;;;15.55;9.13;;;;;;;2.89;40.22;102630.44;5096513;28;20028;-76
2022/03/21 01:46:37;;;;;;;18.53;10.53;;;;;;;2.93;40.33;102624.19;5096119;28;20035;-76
2022/03/21 01:49:07;;;;;;;20.38;11.30;;;;;;;2.88;40.15;102620.69;5096123;28;20357;-78
2022/03/21 01:51:34;;;;;;;18.20;9.65;;;;;;;2.83;40.21;102622.56;5096130;28;20486;-77
2022/03/21 01:56:45;;;;;;;14.10;9.57;;;;;;;2.82;40.26;102620.81;5114562;28;20109;-76
2022/03/21 01:59:11;;;;;;;17.58;11.43;;;;;;;2.75;40.67;102613.88;5095967;28;20114;-77
2022/03/21 02:01:37;;;;;;;19.80;10.80;;;;;;;2.74;40.42;102612.13;5096024;28;20024;-77
2022/03/21 02:04:03;;;;;;;18.63;10.23;;;;;;;2.74;40.40;102620.09;5095889;28;20034;-76
2022/03/21 02:06:29;;;;;;;16.65;10.30;;;;;;;2.74;40.38;102612.13;5095399;28;20142;-76
2022/03/21 02:08:57;;;;;;;25.10;10.85;;;;;;;2.74;40.35;102604.16;5095898;28;20115;-76
2022/03/21 02:11:25;;;;;;;17.23;10.88;;;;;;;2.77;40.19;102612.06;5095686;28;20024;-76
2022/03/21 02:13:56;;;;;;;16.73;10.98;;;;;;;2.65;40.30;102612.28;5095631;28;20085;-76
2022/03/21 02:16:23;;;;;;;20.17;11.57;;;;;;;2.59;40.60;102607.06;5095608;28;20406;-76
2022/03/21 02:18:49;;;;;;;27.95;12.18;;;;;;;2.59;40.47;102607.94;5095559;28;20028;-75
2022/03/21 02:21:22;;;;;;;30.45;12.52;;;;;;;2.59;40.63;102612.38;5113788;28;20044;-77
2022/03/21 02:24:00;;;;;;;19.15;9.50;;;;;;;2.67;40.47;102605.16;5095440;28;20113;-76
2022/03/21 02:26:26;;;;;;;19.75;11.98;;;;;;;2.63;40.65;102611.44;5113595;28;20096;-77
2022/03/21 02:28:53;;;;;;;16.27;9.98;;;;;;;2.67;40.50;102611.34;5095264;28;20028;-76
2022/03/21 02:31:20;;;;;;;17.08;11.32;;;;;;;2.71;40.40;102609.50;5095314;28;20478;-75
2022/03/21 02:33:46;;;;;;;14.95;9.90;;;;;;;2.68;40.58;102612.22;5095194;28;20405;-77
2022/03/21 02:36:14;;;;;;;36.92;16.70;;;;;;;2.67;40.74;102615.78;5095238;28;20455;-78
2022/03/21 02:38:40;;;;;;;21.20;11.32;;;;;;;2.64;40.85;102610.50;5095080;28;20405;-77
2022/03/21 02:41:05;;;;;;;19.65;11.10;;;;;;;2.61;40.72;102614.09;5113300;28;20035;-75
2022/03/21 02:43:31;;;;;;;17.20;10.57;;;;;;;2.63;41.05;102606.13;5113260;28;20031;-75
2022/03/21 02:46:04;;;;;;;22.70;11.77;;;;;;;2.69;40.83;102616.63;5094846;28;20027;-75
2022/03/21 02:48:30;;;;;;;22.17;10.07;;;;;;;2.68;40.88;102614.88;5094806;28;20126;-77
2022/03/21 02:51:02;;;;;;;27.15;12.02;;;;;;;2.73;40.87;102615.66;5113126;28;20413;-77
2022/03/21 02:53:30;;;;;;;19.77;10.93;;;;;;;2.76;40.88;102615.59;5113112;28;20485;-76
2022/03/21 02:55:57;;;;;;;19.58;11.02;;;;;;;2.69;41.38;102611.31;5094661;28;20024;-77
2022/03/21 02:58:23;;;;;;;18.67;11.30;;;;;;;2.61;41.17;102615.88;5094804;28;20114;-76
2022/03/21 03:00:49;;;;;;;15.45;10.80;;;;;;;2.59;41.31;102615.91;5094698;28;20111;-76
2022/03/21 03:03:15;;;;;;;19.88;11.50;;;;;;;2.64;41.62;102611.38;5112923;28;20127;-77
2022/03/21 03:05:40;;;;;;;18.88;10.88;;;;;;;2.52;41.55;102616.91;5112837;28;20116;-75
2022/03/21 03:08:06;;;;;;;17.60;10.27;;;;;;;2.47;41.57;102617.91;5094416;28;20040;-75
2022/03/21 03:10:33;;;;;;;19.48;10.15;;;;;;;2.58;41.21;102607.97;5094659;28;20023;-77
2022/03/21 03:12:58;;;;;;;22.10;11.70;;;;;;;2.61;41.08;102611.44;5094946;28;20092;-75
2022/03/21 03:15:24;;;;;;;18.48;10.73;;;;;;;2.64;41.33;102621.13;5112863;28;20237;-76
2022/03/21 03:17:49;;;;;;;17.25;10.25;;;;;;;2.53;41.50;102612.47;5094564;28;20034;-77
2022/03/21 03:20:16;;;;;;;21.17;10.27;;;;;;;2.48;41.52;102619.63;5094512;28;20054;-76
2022/03/21 03:22:43;;;;;;;24.88;10.07;;;;;;;2.38;41.91;102615.38;5094539;28;20062;-76
2022/03/21 03:25:09;;;;;;;17.83;9.77;;;;;;;2.33;41.83;102603.94;5094591;28;20125;-76
2022/03/21 03:27:34;;;;;;;23.40;10.80;;;;;;;2.35;41.99;102605.69;5094432;28;20535;-76
2022/03/21 03:30:01;;;;;;;15.93;9.75;;;;;;;2.34;42.14;102605.69;5094412;28;20023;-76
2022/03/21 03:32:27;;;;;;;18.65;10.20;;;;;;;2.31;42.32;102611.06;5094328;28;20020;-79
2022/03/21 03:34:53;;;;;;;19.17;10.18;;;;;;;2.25;42.69;102600.53;5094812;28;20019;-78
2022/03/21 03:37:19;;;;;;;24.35;10.55;;;;;;;2.25;42.64;102611.16;5094505;28;20076;-76
2022/03/21 03:39:44;;;;;;;19.52;9.13;;;;;;;2.35;42.36;102612.78;5112804;28;20091;-78
2022/03/21 03:42:10;;;;;;;17.27;10.10;;;;;;;2.34;42.75;102614.56;5093937;28;20110;-77
2022/03/21 03:44:36;;;;;;;18.77;9.75;;;;;;;2.34;42.53;102611.00;5112151;28;20139;-75
2022/03/21 03:47:03;;;;;;;17.85;9.38;;;;;;;2.36;42.83;102619.81;5112176;28;20170;-76
2022/03/21 03:49:28;;;;;;;15.18;9.52;;;;;;;2.40;42.71;102613.56;5112105;28;20076;-76
2022/03/21 03:51:54;;;;;;;14.57;10.80;;;;;;;2.28;43.08;102613.75;5093533;28;20031;-77
2022/03/21 03:54:19;;;;;;;19.30;10.20;;;;;;;2.38;43.25;102612.72;5093705;28;20378;-77
2022/03/21 03:56:45;;;;;;;17.08;10.75;;;;;;;2.46;43.24;102618.78;5093976;28;20020;-75
2022/03/21 03:59:10;;;;;;;26.63;11.23;;;;;;;2.49;43.19;102621.38;5093737;28;20066;-75
2022/03/21 04:01:37;;;;;;;17.05;10.70;;;;;;;2.43;43.20;102613.53;5111873;28;20027;-77
2022/03/21 04:04:04;;;;;;;25.10;12.25;;;;;;;2.39;43.48;102603.84;5093737;28;20518;-76
2022/03/21 04:06:29;;;;;;;18.55;11.15;;;;;;;2.41;43.43;102612.69;5080951;28;20518;-77
2022/03/21 04:08:55;;;;;;;23.15;9.52;;;;;;;2.37;43.70;102619.81;5070095;28;20040;-77
2022/03/21 04:11:20;;;;;;;17.92;10.65;;;;;;;2.30;43.98;102625.22;5070113;28;20498;-77
2022/03/21 04:13:49;;;;;;;23.70;11.50;;;;;;;2.38;44.01;102623.34;5071304;28;20419;-78
2022/03/21 04:16:14;;;;;;;20.38;10.07;;;;;;;2.42;43.98;102620.59;5071240;28;20246;-77
2022/03/21 04:18:40;;;;;;;24.67;10.95;;;;;;;2.46;43.99;102626.75;5071363;28;20025;-78
2022/03/21 04:21:05;;;;;;;21.25;11.52;;;;;;;2.41;44.09;102618.00;5071928;28;20024;-77
2022/03/21 04:23:31;;;;;;;19.15;10.38;;;;;;;2.41;44.26;102610.91;5070153;28;20482;-77
2022/03/21 04:25:58;;;;;;;22.42;10.50;;;;;;;2.41;44.46;102618.00;5069806;28;20052;-78
2022/03/21 04:28:23;;;;;;;23.95;11.13;;;;;;;2.48;44.49;102612.53;5070081;28;20036;-78
2022/03/21 04:30:49;;;;;;;20.85;11.48;;;;;;;2.35;44.71;102603.03;5069773;28;20028;-77
2022/03/21 04:33:14;;;;;;;25.60;12.30;;;;;;;2.35;45.10;102621.63;5070183;28;20089;-78
2022/03/21 04:35:41;;;;;;;20.30;11.95;;;;;;;2.44;45.08;102612.63;5071167;28;20432;-78
2022/03/21 04:38:13;;;;;;;21.60;12.15;;;;;;;2.39;45.46;102614.47;5071155;28;20044;-78
2022/03/21 04:40:50;;;;;;;19.70;11.07;;;;;;;2.42;45.63;102617.06;5069816;28;20085;-78
2022/03/21 04:43:17;;;;;;;30.70;12.50;;;;;;;2.46;45.46;102608.16;5069703;28;20047;-78
2022/03/21 04:45:46;;;;;;;21.77;12.05;;;;;;;2.44;45.15;102617.94;5069743;28;20029;-77
2022/03/21 04:48:12;;;;;;;29.13;12.70;;;;;;;2.53;45.41;102615.13;5069797;28;20024;-79
2022/03/21 04:50:38;;;;;;;27.50;11.63;;;;;;;2.60;45.04;102617.66;5069650;28;20406;-77
2022/03/21 04:53:05;;;;;;;22.27;13.35;;;;;;;2.61;45.05;102610.56;5069795;28;20036;-78
2022/03/21 04:55:32;;;;;;;17.33;11.20;;;;;;;2.68;45.29;102617.53;5069624;28;20039;-80
2022/03/21 04:57:58;;;;;;;22.17;12.10;;;;;;;2.78;45.05;102611.16;5071269;28;20029;-76
2022/03/21 05:00:24;;;;;;;29.80;13.70;;;;;;;2.90;45.01;102615.38;5069422;28;20039;-78
2022/03/21 05:02:49;;;;;;;25.38;13.15;;;;;;;2.78;45.58;102611.16;5069416;28;20047;-77
2022/03/21 05:05:15;;;;;;;32.85;13.70;;;;;;;2.78;45.80;102607.63;5071249;28;20043;-78
2022/03/21 05:07:45;;;;;;;32.63;13.43;;;;;;;2.88;45.44;102614.50;5075062;28;20484;-76
2022/03/21 05:10:12;;;;;;;27.30;12.70;;;;;;;2.89;45.50;102616.28;5073214;28;20032;-76
2022/03/21 05:12:38;;;;;;;29.17;14.25;;;;;;;2.90;45.47;102610.06;5072940;28;20066;-76
2022/03/21 05:15:06;;;;;;;29.40;12.43;;;;;;;2.97;45.28;102612.56;5073971;28;20068;-76
2022/03/21 05:17:33;;;;;;;32.35;13.40;;;;;;;2.94;45.27;102609.09;5072841;28;20021;-76
2022/03/21 05:19:59;;;;;;;23.58;12.55;;;;;;;3.10;44.91;102605.25;5072688;28;20024;-77
2022/03/21 05:22:25;;;;;;;27.70;12.60;;;;;;;3.16;44.33;102606.00;5073967;28;20028;-77
2022/03/21 05:35:57;;;;;;;28.73;12.68;;;;;;;3.58;43.09;102614.03;5074432;28;20142;-77
2022/03/21 05:38:27;;;;;;;25.00;10.57;;;;;;;3.69;42.89;102606.72;5072742;28;20478;-77
2022/03/21 05:40:59;;;;;;;20.75;10.85;;;;;;;3.74;43.09;102607.47;5072497;28;20032;-78
2022/03/21 05:43:26;;;;;;;20.52;10.82;;;;;;;3.88;42.94;102616.06;5072451;28;20035;-78
2022/03/21 05:45:52;;;;;;;32.70;11.95;;;;;;;3.93;43.11;102618.59;5072444;28;20028;-77
2022/03/21 05:49:19;;;;;;;25.52;13.48;;;;;;;4.00;42.98;102618.44;5072461;28;20414;-77
2022/03/21 05:51:14;;;;;;;28.45;13.43;;;;;;;4.05;42.73;102620.97;5060093;28;20509;-76
2022/03/21 05:53:41;;;;;;;31.02;13.05;;;;;;;4.09;42.80;102602.25;5073652;28;20087;-76
2022/03/21 05:56:06;;;;;;;35.70;14.65;;;;;;;4.24;42.23;102609.88;5071789;28;20023;-77
2022/03/21 05:58:32;;;;;;;25.10;12.00;;;;;;;4.44;41.81;102613.84;5072170;28;20397;-76
2022/03/21 06:00:57;;;;;;;23.48;11.63;;;;;;;4.52;41.93;102619.88;5072234;28;20028;-76
2022/03/21 06:03:26;;;;;;;21.83;12.07;;;;;;;4.62;41.42;102613.38;5072177;28;20482;-76
2022/03/21 06:05:55;;;;;;;34.53;14.25;;;;;;;4.64;41.08;102611.56;5077956;28;20055;-76
2022/03/21 06:08:22;;;;;;;32.72;11.48;;;;;;;4.80;40.68;102612.94;5095360;28;20057;-77
2022/03/21 06:10:47;;;;;;;28.15;11.43;;;;;;;4.81;41.04;102609.34;5095055;28;20483;-77
2022/03/21 06:13:14;;;;;;;29.85;11.98;;;;;;;5.00;40.86;102610.63;5095164;28;20028;-77
2022/03/21 06:15:40;;;;;;;22.20;11.88;;;;;;;5.12;40.63;102602.28;5094781;28;20445;-77
2022/03/21 06:18:12;;;;;;;20.60;11.48;;;;;;;5.27;40.04;102599.19;5095021;28;20027;-76
2022/03/21 06:20:40;;;;;;;24.92;10.73;;;;;;;5.36;40.12;102600.72;5095079;28;20016;-78
2022/03/21 06:23:06;;;;;;;26.38;11.38;;;;;;;5.58;39.11;102603.66;5113575;28;20099;-76
2022/03/21 06:25:32;;;;;;;37.70;13.27;;;;;;;5.66;38.65;102607.84;5095540;28;20047;-76
2022/03/21 06:27:58;;;;;;;32.72;12.52;;;;;;;5.76;38.68;102593.31;5113840;28;20015;-77
2022/03/21 06:30:24;;;;;;;33.80;10.52;;;;;;;5.89;37.74;102604.53;5095079;28;20034;-77
2022/03/21 06:32:49;;;;;;;19.42;10.20;;;;;;;6.03;37.84;102607.63;5078248;28;20024;-77
2022/03/21 06:35:15;;;;;;;22.85;10.05;;;;;;;6.19;37.18;102614.25;5113095;28;20046;-77
2022/03/21 06:37:41;;;;;;;19.58;9.23;;;;;;;6.17;36.89;102613.44;5094962;28;20054;-76
2022/03/21 06:40:09;;;;;;;16.73;9.75;;;;;;;6.21;36.46;102612.41;5094649;28;20027;-77
2022/03/21 06:42:35;;;;;;;21.15;10.45;;;;;;;6.27;37.13;102617.53;5113334;28;20085;-77
2022/03/21 06:45:00;;;;;;;21.67;9.43;;;;;;;6.39;36.83;102621.66;5094809;28;20027;-78
2022/03/21 06:47:26;;;;;;;20.17;10.27;;;;;;;6.52;36.47;102621.19;5094485;28;20020;-76
2022/03/21 06:49:51;;;;;;;27.58;10.35;;;;;;;6.66;36.41;102619.88;5112955;28;20024;-76
2022/03/21 06:52:18;;;;;;;21.05;10.15;;;;;;;6.76;36.16;102615.97;5094593;28;20028;-77
2022/03/21 06:54:48;;;;;;;21.88;10.85;;;;;;;6.84;36.33;102608.53;5094478;28;20015;-77
2022/03/21 06:57:16;;;;;;;22.30;9.63;;;;;;;6.97;36.08;102621.41;5112968;28;20016;-76
2022/03/21 06:59:42;;;;;;;24.38;8.90;;;;;;;7.06;35.49;102621.09;5112783;28;20031;-77
2022/03/21 07:02:07;;;;;;;25.70;8.98;;;;;;;7.18;35.37;102619.81;5094234;28;20027;-77
2022/03/21 07:04:33;;;;;;;33.72;10.65;;;;;;;7.21;35.44;102614.34;5094117;28;20027;-77
2022/03/21 07:06:58;;;;;;;17.42;7.95;;;;;;;7.28;34.79;102615.03;5094005;28;20058;-77
2022/03/21 07:09:25;;;;;;;22.27;9.02;;;;;;;7.40;34.55;102620.78;5112413;28;20120;-78
2022/03/21 07:11:51;;;;;;;19.85;9.00;;;;;;;7.52;34.03;102616.78;5112586;28;20031;-77
2022/03/21 07:14:18;;;;;;;11.35;7.38;;;;;;;7.52;33.77;102614.97;5094130;28;20020;-77
2022/03/21 07:16:44;;;;;;;15.60;8.32;;;;;;;7.55;34.19;102614.84;5112219;28;20020;-77
2022/03/21 07:19:09;;;;;;;20.33;7.82;;;;;;;7.55;33.41;102614.84;5093954;28;20023;-77
2022/03/21 07:21:35;;;;;;;21.83;8.50;;;;;;;7.50;33.55;102606.13;5094040;28;20024;-77
2022/03/21 07:24:00;;;;;;;23.77;7.93;;;;;;;7.70;33.25;102621.47;5093918;28;20020;-78
2022/03/21 07:26:26;;;;;;;18.67;8.32;;;;;;;7.75;32.49;102615.91;5111731;28;20393;-77
2022/03/21 07:28:51;;;;;;;20.95;9.43;;;;;;;7.78;32.56;102626.50;5093480;28;20126;-77
2022/03/21 07:31:17;;;;;;;27.65;9.93;;;;;;;7.69;33.24;102611.69;5093905;28;20027;-77
2022/03/21 07:33:43;;;;;;;21.75;9.60;;;;;;;7.82;32.76;102610.28;5093800;28;20026;-76
2022/03/21 07:36:09;;;;;;;21.13;9.35;;;;;;;7.99;32.62;102620.34;5093842;28;20024;-79
2022/03/21 07:38:36;;;;;;;15.80;7.60;;;;;;;7.97;32.60;102608.81;5093844;28;20034;-79
2022/03/21 07:41:07;;;;;;;28.02;8.27;;;;;;;8.20;32.59;102603.41;5093731;28;20023;-77
2022/03/21 07:43:36;;;;;;;11.70;6.75;;;;;;;8.13;32.71;102609.97;5093647;28;20028;-78
2022/03/21 07:48:47;;;;;;;12.23;6.80;;;;;;;8.41;31.58;102607.09;5112309;28;20133;-76
2022/03/21 07:51:14;;;;;;;32.35;12.43;;;;;;;8.55;30.64;102600.22;5093472;28;20020;-77
2022/03/21 07:53:40;;;;;;;25.08;7.55;;;;;;;8.59;29.54;102595.59;5093670;28;20498;-77
2022/03/21 07:56:05;;;;;;;15.05;5.63;;;;;;;8.63;29.57;102600.75;5093423;28;20027;-76
2022/03/21 07:58:31;;;;;;;15.23;6.35;;;;;;;8.73;28.43;102599.44;5093509;28;20028;-76
2022/03/21 08:00:58;;;;;;;11.90;6.57;;;;;;;8.80;28.41;102583.06;5093255;28;20171;-77
2022/03/21 08:03:24;;;;;;;10.15;5.50;;;;;;;8.92;28.31;102596.84;5111788;28;20019;-77
2022/03/21 08:05:49;;;;;;;26.13;6.90;;;;;;;9.09;28.01;102596.09;5093346;28;20041;-77
2022/03/21 08:08:15;;;;;;;13.20;6.22;;;;;;;9.11;26.87;102586.19;5092965;28;20045;-77
2022/03/21 08:10:41;;;;;;;7.93;5.32;;;;;;;9.26;25.87;102583.66;5111514;28;20027;-77
2022/03/21 08:13:08;;;;;;;14.63;6.63;;;;;;;9.28;25.99;102583.59;5093235;28;20045;-77
2022/03/21 08:15:36;;;;;;;12.50;6.20;;;;;;;9.28;25.88;102587.16;5111805;28;20076;-77
2022/03/21 08:18:05;;;;;;;8.25;6.10;;;;;;;9.38;25.88;102582.25;5111618;28;20393;-77
2022/03/21 08:20:37;;;;;;;14.10;5.60;;;;;;;9.42;25.62;102577.63;5093193;28;20089;-77
2022/03/21 08:23:06;;;;;;;10.90;5.78;;;;;;;9.42;24.92;102570.41;5111351;28;20019;-77
2022/03/21 08:25:33;;;;;;;18.60;5.40;;;;;;;9.46;24.96;102580.09;5111187;28;20024;-77
2022/03/21 08:27:58;;;;;;;23.00;6.00;;;;;;;9.35;24.34;102587.78;5092973;28;20042;-77
2022/03/21 08:30:24;;;;;;;16.90;6.50;;;;;;;9.35;24.28;102582.41;5092961;28;20032;-77
2022/03/21 08:32:50;;;;;;;10.85;5.47;;;;;;;9.44;24.52;102571.22;5111368;28;20102;-76
2022/03/21 08:35:18;;;;;;;9.45;5.43;;;;;;;9.48;24.26;102571.97;5092833;28;20031;-78
2022/03/21 08:37:44;;;;;;;18.92;5.85;;;;;;;9.51;23.69;102588.78;5092954;28;20023;-77
2022/03/21 08:40:11;;;;;;;12.48;5.60;;;;;;;9.52;24.24;102587.84;5096353;28;20512;-78
2022/03/21 08:42:37;;;;;;;11.85;6.13;;;;;;;9.60;24.52;102571.41;5097234;28;20022;-78
2022/03/21 08:45:04;;;;;;;22.75;6.57;;;;;;;9.69;24.64;102579.88;5097189;28;20031;-76
2022/03/21 08:47:31;;;;;;;18.92;6.70;;;;;;;9.75;24.14;102576.06;5096859;28;20027;-77
2022/03/21 08:49:57;;;;;;;13.60;5.55;;;;;;;9.83;23.72;102568.50;5096661;28;20020;-77
2022/03/21 08:52:22;;;;;;;19.10;5.65;;;;;;;9.90;23.92;102561.91;5096709;28;20076;-77
2022/03/21 08:54:48;;;;;;;14.07;6.28;;;;;;;10.08;23.52;102565.50;5096432;28;20420;-76
2022/03/21 08:57:13;;;;;;;12.50;5.05;;;;;;;10.21;22.91;102559.47;5096879;28;20019;-77
2022/03/21 08:59:39;;;;;;;9.38;4.68;;;;;;;10.30;22.58;102567.09;5115063;28;20416;-77
2022/03/21 09:02:05;;;;;;;12.63;4.90;;;;;;;10.27;22.30;102558.34;5114877;28;20038;-77
2022/03/21 09:04:30;;;;;;;15.30;4.97;;;;;;;10.33;22.61;102558.03;5096660;28;20019;-77
2022/03/21 09:06:56;;;;;;;12.05;4.82;;;;;;;10.41;22.27;102555.81;5114668;28;20048;-77
2022/03/21 09:09:21;;;;;;;12.65;4.90;;;;;;;10.35;22.41;102553.44;5114777;28;20036;-77
2022/03/21 09:11:48;;;;;;;8.68;4.72;;;;;;;10.51;22.17;102565.19;5114627;28;20019;-77
2022/03/21 09:14:14;;;;;;;12.52;5.53;;;;;;;10.48;22.16;102559.94;5096304;28;20027;-78
2022/03/21 09:16:42;;;;;;;17.25;5.68;;;;;;;10.42;22.24;102557.56;5114701;28;20034;-77
2022/03/21 09:19:08;;;;;;;11.60;5.28;;;;;;;10.43;22.56;102558.44;5095995;28;20047;-77
2022/03/21 09:21:34;;;;;;;10.38;4.90;;;;;;;10.54;22.42;102562.34;5115251;28;20035;-76
2022/03/21 09:24:00;;;;;;;15.57;6.00;;;;;;;10.66;22.94;102556.31;5096160;28;20043;-76
2022/03/21 09:26:25;;;;;;;11.63;5.53;;;;;;;10.79;22.31;102560.09;5096170;28;20054;-77
2022/03/21 09:28:59;;;;;;;15.07;5.68;;;;;;;10.87;22.75;102551.66;5096248;28;20404;-76
2022/03/21 09:31:26;;;;;;;18.58;5.75;;;;;;;10.99;22.55;102550.13;5096343;28;20035;-77
2022/03/21 09:33:51;;;;;;;9.13;5.35;;;;;;;10.97;21.97;102560.13;5096214;28;20035;-78
2022/03/21 09:36:17;;;;;;;9.48;5.07;;;;;;;11.01;22.25;102548.25;5096186;28;20028;-78
2022/03/21 09:38:43;;;;;;;13.65;7.00;;;;;;;11.07;21.85;102539.84;5114350;28;20458;-77
2022/03/21 09:41:12;;;;;;;18.20;5.75;;;;;;;11.14;22.19;102552.88;5096131;28;20030;-76
2022/03/21 09:43:39;;;;;;;13.73;5.88;;;;;;;11.13;21.71;102558.38;5114450;28;20111;-78
2022/03/21 09:46:07;;;;;;;13.40;6.15;;;;;;;11.08;21.87;102546.94;5114170;28;20099;-77
2022/03/21 09:48:34;;;;;;;16.33;6.03;;;;;;;11.28;22.21;102547.63;5095812;28;20386;-78
2022/03/21 09:51:01;;;;;;;9.32;5.93;;;;;;;11.21;21.49;102532.75;5094971;28;20570;-78
2022/03/21 09:53:28;;;;;;;13.98;5.63;;;;;;;11.11;21.85;102546.78;5095324;28;20470;-78
2022/03/21 09:55:54;;;;;;;16.42;6.28;;;;;;;11.06;22.07;102530.00;5095691;28;20024;-77
2022/03/21 09:58:20;;;;;;;22.25;6.47;;;;;;;11.01;22.17;102529.41;5095484;28;20099;-76
2022/03/21 10:00:47;;;;;;;16.25;7.47;;;;;;;11.20;22.62;102530.13;5113930;28;20031;-77
2022/03/21 10:03:13;;;;;;;26.25;6.93;;;;;;;11.37;22.60;102528.28;5095628;28;20023;-76
2022/03/21 10:05:46;;;;;;;14.43;6.60;;;;;;;11.51;22.26;102535.59;5113982;28;20034;-76
2022/03/21 10:08:11;;;;;;;18.05;6.63;;;;;;;11.55;21.81;102526.41;5113648;28;20050;-77
2022/03/21 10:10:38;;;;;;;17.73;6.47;;;;;;;11.64;22.09;102531.28;5095533;28;20110;-79
2022/03/21 10:13:04;;;;;;;13.80;6.43;;;;;;;11.74;21.60;102521.75;5113609;28;20027;-77
2022/03/21 10:15:32;;;;;;;11.55;5.30;;;;;;;11.81;21.48;102519.56;5095623;28;20038;-77
2022/03/21 10:18:08;;;;;;;12.10;6.05;;;;;;;11.84;21.38;102522.97;5095325;28;20481;-77
2022/03/21 10:20:36;;;;;;;8.55;5.55;;;;;;;11.89;20.88;102512.81;5095381;28;20114;-76
2022/03/21 10:23:22;;;;;;;8.18;6.03;;;;;;;12.01;21.44;102492.38;5113423;28;20415;-76
2022/03/21 10:25:49;;;;;;;10.27;5.25;;;;;;;12.14;21.53;102497.94;5095080;28;20057;-76
2022/03/21 10:28:36;;;;;;;21.23;6.25;;;;;;;12.25;21.79;102498.16;5095113;28;20259;-76
2022/03/21 10:31:03;;;;;;;10.70;6.15;;;;;;;12.42;22.97;102490.78;5113176;28;20027;-77
2022/03/21 10:33:29;;;;;;;19.48;7.00;;;;;;;12.49;22.30;102507.50;5113510;28;20034;-77
2022/03/21 10:35:55;;;;;;;11.77;6.18;;;;;;;12.56;21.42;102498.09;5094548;28;20039;-77
2022/03/21 10:38:34;;;;;;;19.58;6.70;;;;;;;12.57;20.56;102497.97;5094479;28;20504;-77
2022/03/21 10:41:08;;;;;;;13.23;6.45;;;;;;;12.47;20.95;102490.53;5094782;28;20024;-78
2022/03/21 10:43:34;;;;;;;19.60;6.68;;;;;;;12.62;21.31;102503.13;5113050;28;20062;-76
2022/03/21 10:46:01;;;;;;;11.10;6.50;;;;;;;12.74;21.76;102491.56;5094696;28;20023;-76
2022/03/21 10:48:26;;;;;;;14.95;6.45;;;;;;;12.82;22.00;102486.56;5094849;28;20016;-76
2022/03/21 10:50:54;;;;;;;15.50;6.70;;;;;;;13.01;21.23;102478.19;5112997;28;20378;-76
2022/03/21 10:53:40;;;;;;;13.30;6.90;;;;;;;12.80;22.42;102477.69;5094270;28;20561;-76
2022/03/21 10:56:11;;;;;;;11.15;6.30;;;;;;;12.87;23.83;102472.78;5112888;28;20033;-78
2022/03/21 10:58:47;;;;;;;16.95;7.43;;;;;;;12.91;24.64;102475.19;5094481;28;20031;-78
2022/03/21 11:01:26;;;;;;;12.90;5.63;;;;;;;13.08;23.07;102475.06;5112320;28;20034;-76
2022/03/21 11:03:57;;;;;;;22.80;8.43;;;;;;;12.96;21.40;102470.41;5093776;28;20023;-76
2022/03/21 11:06:23;;;;;;;18.83;8.45;;;;;;;13.10;21.75;102464.16;5093027;28;20044;-77
2022/03/21 11:08:52;;;;;;;26.50;7.43;;;;;;;13.15;23.60;102463.88;5112629;28;20172;-77
2022/03/21 11:11:18;;;;;;;19.63;7.32;;;;;;;13.28;22.67;102481.91;5112578;28;20064;-76
2022/03/21 11:13:45;;;;;;;23.10;7.35;;;;;;;13.31;21.98;102462.78;5094102;28;20031;-77
2022/03/21 11:16:12;;;;;;;24.10;6.28;;;;;;;13.35;22.71;102447.25;5112359;28;20477;-77
2022/03/21 11:18:40;;;;;;;13.50;6.25;;;;;;;13.24;24.04;102449.78;5093697;28;20114;-76
2022/03/21 11:21:07;;;;;;;15.40;6.18;;;;;;;13.35;24.82;102445.41;5093891;28;20177;-77
2022/03/21 11:23:32;;;;;;;13.85;6.55;;;;;;;13.32;24.74;102442.03;5093889;28;20477;-77
2022/03/21 11:26:24;;;;;;;17.20;6.13;;;;;;;13.33;24.36;102432.97;5093774;28;20133;-76
2022/03/21 11:28:55;;;;;;;16.40;7.45;;;;;;;13.58;24.08;102443.91;5073087;28;20040;-78
2022/03/21 11:31:42;;;;;;;36.85;7.80;;;;;;;13.81;24.33;102435.19;5093616;28;20118;-76
2022/03/21 11:34:26;;;;;;;18.35;5.60;;;;;;;14.00;24.12;102418.59;5093734;28;20478;-78
2022/03/21 11:36:54;;;;;;;20.13;6.13;;;;;;;14.14;24.23;102411.25;5093771;28;20043;-77